首页
METAR-TAF:

METAR-TAF

机场 :

賓漢頓, 紐約州, 美国

纬度: 42-12-28N, 经度: 075-58-53W, 海拔: 496米

当前天气观测

该预报发布于1小时和6分钟前的07:53 UTC
风速6节,风向西
温度 -10°C
湿度 67%
气压 1033 hPa
能見度: 16.1公里
天空无云

METAR: KBGM 120753Z AUTO 28006KT 10SM CLR M10/M15 A3049 RMK AO2 SLP353 T11001150

时间: 03:59 (08:59 UTC)

预报

该预报发布于3小时和4分钟前的05:55 UTC
预报有效从12日的 06点(UTC)到 13日的 06点(UTC)
风速9节,风向西转西北
能見度: 10公里
少量云层高于15000英尺
从 12日的 1000点(UTC)
风速4节,风向西
能見度: 10公里
散云层高于9000英尺
从 12日的 1600点(UTC)
风速6节,风向南转西南
能見度: 10公里
散云层高于9000英尺
从 12日的 2000点(UTC)
风速8节,风向
能見度: 10公里
散云层高于25000英尺
从 13日的 0100点(UTC)
风速13节,风向
能見度: 10公里
多云层高于12000英尺

TAF: KBGM 120555Z 1206/1306 30009KT P6SM FEW150 FM121000 27004KT P6SM SCT090 FM121600 21006KT P6SM SCT090 FM122000 17008KT P6SM SCT250 FM130100 18013KT P6SM BKN120

超过4000个机场的气象观测和天气预报(METAR&TAF报告)。

可查询的气象台以黄色和红色小点在地图上表示。

将鼠标移到小点上方,可查看气象台名称。

然后点击查看天气观测和预报。

如需切换地图:点击带黑十字的绿色按钮放大地图;点击带横线的绿色按钮缩小地图;或者点击绿色箭头查看邻近地区的地图。


METAR-TAF: